createdAt,value
2018-07-01T00:00:59.486Z,3.74
2018-07-01T00:06:54.526Z,4.31
2018-07-01T00:12:49.582Z,4.27
2018-07-01T00:18:44.511Z,3.84
2018-07-01T00:24:39.525Z,3.87
2018-07-01T00:30:34.501Z,4.19
2018-07-01T00:36:29.567Z,3.84
2018-07-01T00:42:24.505Z,3.88
2018-07-01T00:48:19.549Z,3.8
2018-07-01T00:54:14.565Z,4.25
2018-07-01T01:00:09.519Z,3.92
2018-07-01T01:06:04.591Z,3.79
2018-07-01T01:11:59.549Z,3.82
2018-07-01T01:17:54.519Z,4.09
2018-07-01T01:23:49.562Z,3.97
2018-07-01T01:29:44.561Z,4.12
2018-07-01T01:35:39.580Z,4.02
2018-07-01T01:41:34.607Z,4.29
2018-07-01T01:47:29.560Z,4.33
2018-07-01T01:53:24.560Z,4.34
2018-07-01T01:59:19.606Z,4.34
2018-07-01T02:05:14.592Z,3.87
2018-07-01T02:11:09.620Z,4.18
2018-07-01T02:17:04.607Z,4.55
2018-07-01T02:22:59.605Z,4.5
2018-07-01T02:28:54.619Z,4.57
2018-07-01T02:34:49.630Z,4.73
2018-07-01T02:46:39.600Z,4.59
2018-07-01T02:46:39.651Z,4.74
2018-07-01T02:52:34.682Z,4.45
2018-07-01T02:58:29.606Z,4.11
2018-07-01T03:04:24.640Z,4.55
2018-07-01T03:10:19.623Z,4.84
2018-07-01T03:16:14.635Z,4.24
2018-07-01T03:22:09.704Z,5.27
2018-07-01T03:28:04.641Z,4.93
2018-07-01T03:33:59.685Z,4.88
2018-07-01T03:39:54.686Z,5.02
2018-07-01T03:45:49.666Z,4.99
2018-07-01T03:51:44.703Z,5.28
2018-07-01T03:57:39.696Z,5.13
2018-07-01T04:03:34.622Z,5.12
2018-07-01T04:09:29.691Z,5.08
2018-07-01T04:15:24.760Z,6.62
2018-07-01T04:21:19.738Z,6.27
2018-07-01T04:27:14.658Z,5.78
2018-07-01T04:33:09.684Z,4.94
2018-07-01T04:39:04.727Z,5.5
2018-07-01T04:44:59.702Z,5.13
2018-07-01T04:50:54.717Z,5.15
2018-07-01T04:56:49.763Z,5.61
2018-07-01T05:02:44.769Z,4.84
2018-07-01T05:08:39.732Z,5.07
2018-07-01T05:14:34.731Z,5.59
2018-07-01T05:20:29.740Z,5.76
2018-07-01T05:26:24.822Z,5.9
2018-07-01T05:32:19.800Z,5.74
2018-07-01T05:38:14.727Z,6.37
2018-07-01T05:44:09.757Z,5.57
2018-07-01T05:50:04.753Z,5.72
2018-07-01T05:55:59.818Z,5.38
2018-07-01T06:01:54.749Z,5.2
2018-07-01T06:07:49.797Z,5.47
2018-07-01T06:13:44.786Z,5.24
2018-07-01T06:19:39.767Z,4.73
2018-07-01T06:31:29.742Z,5.42
2018-07-01T06:31:29.818Z,5.4
2018-07-01T06:37:24.845Z,6.2
2018-07-01T06:43:19.853Z,6.95
2018-07-01T06:49:14.821Z,7
2018-07-01T06:55:09.803Z,6.23
2018-07-01T07:01:04.763Z,6.44
2018-07-01T07:06:59.830Z,6.23
2018-07-01T07:12:54.901Z,5.87
2018-07-01T07:18:49.863Z,5.74
2018-07-01T07:24:44.859Z,5.94
2018-07-01T07:30:39.838Z,6.29
2018-07-01T07:36:34.840Z,5.73
2018-07-01T07:42:29.828Z,6.05
2018-07-01T07:48:24.891Z,5.6
2018-07-01T07:54:19.817Z,5.59
2018-07-01T08:00:14.866Z,5.38
2018-07-01T08:06:09.827Z,5.77
2018-07-01T08:12:04.942Z,5.65
2018-07-01T08:17:59.931Z,4.89
2018-07-01T08:23:54.886Z,4.6
2018-07-01T08:29:49.831Z,4.7
2018-07-01T08:35:44.867Z,3.99
2018-07-01T08:41:39.881Z,3.71
2018-07-01T08:47:34.904Z,3.68
2018-07-01T08:53:29.962Z,4.27
2018-07-01T08:59:24.884Z,3.96
2018-07-01T09:05:19.906Z,3.96
2018-07-01T09:11:14.879Z,3.73
2018-07-01T09:17:09.941Z,3.61
2018-07-01T09:23:04.955Z,2.96
2018-07-01T09:29:00.102Z,2.92
2018-07-01T09:34:54.936Z,3.25
2018-07-01T09:40:49.924Z,2.97
2018-07-01T09:46:44.915Z,3.69
2018-07-01T09:52:39.930Z,3.59
2018-07-01T09:58:34.942Z,3.21
2018-07-01T10:04:29.969Z,3.39
2018-07-01T10:10:24.961Z,3.36
2018-07-01T10:16:19.975Z,3.02
2018-07-01T10:22:14.951Z,2.87
2018-07-01T10:28:09.983Z,2.63
2018-07-01T10:34:04.951Z,1.71
2018-07-01T10:39:59.985Z,1.82
2018-07-01T10:45:55.006Z,2.55
2018-07-01T10:51:49.968Z,1.93
2018-07-01T10:57:45.143Z,1.1
2018-07-01T11:03:40.002Z,1.34
2018-07-01T11:09:35.059Z,1.31
2018-07-01T11:15:30.038Z,1.33
2018-07-01T11:21:25.020Z,1.09
2018-07-01T11:27:20.053Z,1.26
2018-07-01T11:33:15.042Z,1.12
2018-07-01T11:39:10.053Z,1.12
2018-07-01T11:45:05.048Z,1.47
2018-07-01T11:51:00.090Z,1.44
2018-07-01T11:56:55.120Z,1.09
2018-07-01T12:02:50.085Z,1.4
2018-07-01T12:08:45.040Z,1.59
2018-07-01T12:14:40.072Z,1.89
2018-07-01T12:20:35.074Z,1.33
2018-07-01T12:26:30.102Z,1.36
2018-07-01T12:32:25.062Z,1.18
2018-07-01T12:38:20.046Z,1.22
2018-07-01T12:44:15.127Z,1.43
2018-07-01T12:50:10.125Z,1.39
2018-07-01T12:56:05.154Z,1.33
2018-07-01T13:02:00.157Z,1.02
2018-07-01T13:07:55.121Z,1.21
2018-07-01T13:13:50.196Z,1.25
2018-07-01T13:19:45.116Z,1.06
2018-07-01T13:25:40.114Z,0.97
2018-07-01T13:31:35.109Z,1.18
2018-07-01T13:37:30.143Z,0.73
2018-07-01T13:43:25.211Z,0.77
2018-07-01T13:49:20.216Z,0.76
2018-07-01T13:55:15.154Z,0.88
2018-07-01T14:01:10.207Z,0.88
2018-07-01T14:07:05.202Z,0.85
2018-07-01T14:13:00.181Z,0.85
2018-07-01T14:18:55.201Z,0.98
2018-07-01T14:24:50.162Z,0.72
2018-07-01T14:30:45.213Z,1.06
2018-07-01T14:36:40.225Z,0.99
2018-07-01T14:42:35.223Z,0.83
2018-07-01T14:48:30.259Z,0.9
2018-07-01T14:54:25.228Z,0.89
2018-07-01T15:00:20.196Z,0.92
2018-07-01T15:06:15.232Z,2.3
2018-07-01T15:12:10.275Z,0.91
2018-07-01T15:18:05.242Z,1.3
2018-07-01T15:24:00.256Z,1.53
2018-07-01T15:29:55.236Z,1.25
2018-07-01T15:35:51.261Z,1.09
2018-07-01T15:41:45.221Z,0.84
2018-07-01T15:47:40.242Z,0.96
2018-07-01T15:53:35.277Z,0.74
2018-07-01T15:59:30.281Z,6.96
2018-07-01T16:05:25.276Z,0.79
2018-07-01T16:11:20.286Z,0.93
2018-07-01T16:17:15.279Z,0.73
2018-07-01T16:23:10.308Z,0.98
2018-07-01T16:29:05.293Z,0.68
2018-07-01T16:35:00.297Z,0.68
2018-07-01T16:40:55.409Z,0.82
2018-07-01T16:46:50.342Z,0.8
2018-07-01T16:52:45.299Z,3.01
2018-07-01T16:58:40.328Z,1
2018-07-01T17:04:35.383Z,0.76
2018-07-01T17:10:30.343Z,0.8
2018-07-01T17:16:25.347Z,0.78
2018-07-01T17:22:20.483Z,0.81
2018-07-01T17:28:15.344Z,0.87
2018-07-01T17:34:10.362Z,1.17
2018-07-01T17:40:05.412Z,1.01
2018-07-01T17:46:00.427Z,1.01
2018-07-01T17:51:55.450Z,0.87
2018-07-01T17:57:50.384Z,0.95
2018-07-01T18:03:45.414Z,0.91
2018-07-01T18:09:40.536Z,1.39
2018-07-01T18:15:35.365Z,7.11
2018-07-01T18:21:40.297Z,21.45
2018-07-01T18:27:25.592Z,2.63
2018-07-01T18:33:20.489Z,2.95
2018-07-01T18:39:15.401Z,9.6
2018-07-01T18:45:10.474Z,13.68
2018-07-01T18:51:05.431Z,4.94
2018-07-01T18:57:00.494Z,1.92
2018-07-01T19:02:55.405Z,1.83
2018-07-01T19:08:50.467Z,1.25
2018-07-01T19:14:45.479Z,3.97
2018-07-01T19:20:40.465Z,1.55
2018-07-01T19:26:35.473Z,1.45
2018-07-01T19:32:30.477Z,1.39
2018-07-01T19:38:25.444Z,1.68
2018-07-01T19:44:20.463Z,1.68
2018-07-01T19:50:15.514Z,1.39
2018-07-01T19:56:10.482Z,1.4
2018-07-01T20:02:05.561Z,1.27
2018-07-01T20:08:00.529Z,1.21
2018-07-01T20:13:55.501Z,1.46
2018-07-01T20:19:50.487Z,1.28
2018-07-01T20:25:45.508Z,1.34
2018-07-01T20:31:40.500Z,1.42
2018-07-01T20:37:35.490Z,2
2018-07-01T20:43:30.504Z,1.76
2018-07-01T20:49:25.594Z,1.75
2018-07-01T20:55:20.507Z,1.8
2018-07-01T21:01:15.563Z,1.48
2018-07-01T21:07:10.619Z,2.17
2018-07-01T21:13:05.540Z,1.69
2018-07-01T21:19:00.597Z,1.77
2018-07-01T21:24:55.629Z,1.81
2018-07-01T21:30:50.567Z,1.67
2018-07-01T21:36:45.585Z,1.63
2018-07-01T21:42:40.533Z,1.63
2018-07-01T21:48:35.587Z,1.79
2018-07-01T21:54:30.596Z,2.05
2018-07-01T22:00:25.579Z,1.79
2018-07-01T22:06:20.582Z,1.74
2018-07-01T22:12:15.572Z,2.39
2018-07-01T22:18:10.593Z,1.55
2018-07-01T22:24:05.617Z,1.41
2018-07-01T22:30:00.683Z,1.62
2018-07-01T22:35:55.578Z,1.36
2018-07-01T22:41:50.606Z,1.96
2018-07-01T22:47:45.586Z,1.42
2018-07-01T22:53:40.618Z,1.57
2018-07-01T22:59:35.686Z,1.39
2018-07-01T23:05:30.649Z,1.52
2018-07-01T23:11:25.721Z,1.68
2018-07-01T23:17:20.643Z,1.48
2018-07-01T23:23:15.615Z,1.75
2018-07-01T23:29:10.645Z,1.78
2018-07-01T23:35:05.678Z,1.54
2018-07-01T23:41:00.674Z,1.72
2018-07-01T23:46:55.657Z,1.77
2018-07-01T23:52:50.644Z,1.99
2018-07-01T23:58:45.745Z,1.59
